sensor_id;sensor_type;location;lat;lon;timestamp;P1;durP1;ratioP1;P2;durP2;ratioP2
43998;SDS011;51319;52.162;5.302;2023-06-24T00:00:43;5.28;;;4.72;;
43998;SDS011;51319;52.162;5.302;2023-06-24T00:03:10;5.97;;;4.97;;
43998;SDS011;51319;52.162;5.302;2023-06-24T00:05:38;4.78;;;4.05;;
43998;SDS011;51319;52.162;5.302;2023-06-24T00:08:09;11.60;;;5.32;;
43998;SDS011;51319;52.162;5.302;2023-06-24T00:10:36;7.63;;;5.22;;
43998;SDS011;51319;52.162;5.302;2023-06-24T00:13:04;6.10;;;4.80;;
43998;SDS011;51319;52.162;5.302;2023-06-24T00:15:31;7.53;;;4.90;;
43998;SDS011;51319;52.162;5.302;2023-06-24T00:17:58;10.63;;;5.00;;
43998;SDS011;51319;52.162;5.302;2023-06-24T00:20:34;8.80;;;5.90;;
43998;SDS011;51319;52.162;5.302;2023-06-24T00:23:02;8.20;;;5.43;;
43998;SDS011;51319;52.162;5.302;2023-06-24T00:25:30;7.53;;;6.00;;
43998;SDS011;51319;52.162;5.302;2023-06-24T00:27:57;7.72;;;6.00;;
43998;SDS011;51319;52.162;5.302;2023-06-24T00:30:25;10.38;;;5.80;;
43998;SDS011;51319;52.162;5.302;2023-06-24T00:32:53;7.88;;;6.15;;
43998;SDS011;51319;52.162;5.302;2023-06-24T00:35:20;9.20;;;5.95;;
43998;SDS011;51319;52.162;5.302;2023-06-24T00:37:48;13.07;;;5.13;;
43998;SDS011;51319;52.162;5.302;2023-06-24T00:40:15;11.52;;;6.15;;
43998;SDS011;51319;52.162;5.302;2023-06-24T00:42:44;10.15;;;6.10;;
43998;SDS011;51319;52.162;5.302;2023-06-24T00:45:12;8.68;;;6.18;;
43998;SDS011;51319;52.162;5.302;2023-06-24T00:47:40;9.40;;;6.43;;
43998;SDS011;51319;52.162;5.302;2023-06-24T00:50:07;7.45;;;5.65;;
43998;SDS011;51319;52.162;5.302;2023-06-24T00:52:35;8.85;;;5.53;;
43998;SDS011;51319;52.162;5.302;2023-06-24T00:55:04;10.57;;;5.80;;
43998;SDS011;51319;52.162;5.302;2023-06-24T00:57:31;8.55;;;6.03;;
43998;SDS011;51319;52.162;5.302;2023-06-24T00:59:59;7.53;;;5.47;;
43998;SDS011;51319;52.162;5.302;2023-06-24T01:02:26;8.10;;;6.18;;
43998;SDS011;51319;52.162;5.302;2023-06-24T01:04:54;7.95;;;5.80;;
43998;SDS011;51319;52.162;5.302;2023-06-24T01:07:23;7.78;;;5.43;;
43998;SDS011;51319;52.162;5.302;2023-06-24T01:09:51;5.53;;;5.03;;
43998;SDS011;51319;52.162;5.302;2023-06-24T01:12:18;6.03;;;5.15;;
43998;SDS011;51319;52.162;5.302;2023-06-24T01:14:45;14.77;;;6.15;;
43998;SDS011;51319;52.162;5.302;2023-06-24T01:17:18;7.45;;;6.18;;
43998;SDS011;51319;52.162;5.302;2023-06-24T01:22:55;8.35;;;5.55;;
43998;SDS011;51319;52.162;5.302;2023-06-24T01:34:33;7.70;;;6.63;;
43998;SDS011;51319;52.162;5.302;2023-06-24T01:37:14;7.22;;;5.70;;
43998;SDS011;51319;52.162;5.302;2023-06-24T01:40:04;8.98;;;6.38;;
43998;SDS011;51319;52.162;5.302;2023-06-24T01:42:39;7.60;;;5.60;;
43998;SDS011;51319;52.162;5.302;2023-06-24T01:45:10;8.18;;;5.75;;
43998;SDS011;51319;52.162;5.302;2023-06-24T01:47:40;6.90;;;5.55;;
43998;SDS011;51319;52.162;5.302;2023-06-24T01:50:12;7.53;;;6.03;;
43998;SDS011;51319;52.162;5.302;2023-06-24T01:52:41;7.68;;;5.80;;
43998;SDS011;51319;52.162;5.302;2023-06-24T01:55:11;11.07;;;5.72;;
43998;SDS011;51319;52.162;5.302;2023-06-24T01:57:41;5.78;;;5.28;;
43998;SDS011;51319;52.162;5.302;2023-06-24T02:00:10;6.70;;;5.60;;
43998;SDS011;51319;52.162;5.302;2023-06-24T02:02:38;8.95;;;5.72;;
43998;SDS011;51319;52.162;5.302;2023-06-24T02:05:06;7.88;;;5.72;;
43998;SDS011;51319;52.162;5.302;2023-06-24T02:07:35;7.03;;;5.72;;
43998;SDS011;51319;52.162;5.302;2023-06-24T02:10:03;9.30;;;6.05;;
43998;SDS011;51319;52.162;5.302;2023-06-24T02:12:34;11.27;;;6.00;;
43998;SDS011;51319;52.162;5.302;2023-06-24T02:15:02;6.45;;;5.65;;
43998;SDS011;51319;52.162;5.302;2023-06-24T02:17:33;7.45;;;5.65;;
43998;SDS011;51319;52.162;5.302;2023-06-24T02:20:01;6.72;;;6.00;;
43998;SDS011;51319;52.162;5.302;2023-06-24T02:22:31;7.70;;;5.83;;
43998;SDS011;51319;52.162;5.302;2023-06-24T02:24:58;7.68;;;5.63;;
43998;SDS011;51319;52.162;5.302;2023-06-24T02:27:26;7.65;;;6.22;;
43998;SDS011;51319;52.162;5.302;2023-06-24T02:29:54;7.72;;;5.97;;
43998;SDS011;51319;52.162;5.302;2023-06-24T02:32:22;14.10;;;7.00;;
43998;SDS011;51319;52.162;5.302;2023-06-24T02:34:49;5.68;;;5.05;;
43998;SDS011;51319;52.162;5.302;2023-06-24T02:37:16;7.85;;;5.95;;
43998;SDS011;51319;52.162;5.302;2023-06-24T02:39:43;8.35;;;6.38;;
43998;SDS011;51319;52.162;5.302;2023-06-24T02:42:11;7.95;;;6.20;;
43998;SDS011;51319;52.162;5.302;2023-06-24T02:44:38;8.10;;;5.60;;
43998;SDS011;51319;52.162;5.302;2023-06-24T02:47:06;9.45;;;6.55;;
43998;SDS011;51319;52.162;5.302;2023-06-24T02:49:38;6.07;;;5.45;;
43998;SDS011;51319;52.162;5.302;2023-06-24T02:52:06;8.98;;;6.32;;
43998;SDS011;51319;52.162;5.302;2023-06-24T02:54:34;8.48;;;6.05;;
43998;SDS011;51319;52.162;5.302;2023-06-24T02:57:05;9.07;;;6.70;;
43998;SDS011;51319;52.162;5.302;2023-06-24T02:59:34;8.15;;;6.45;;
43998;SDS011;51319;52.162;5.302;2023-06-24T03:02:02;8.93;;;6.75;;
43998;SDS011;51319;52.162;5.302;2023-06-24T03:04:31;7.65;;;6.70;;
43998;SDS011;51319;52.162;5.302;2023-06-24T03:06:59;8.25;;;7.10;;
43998;SDS011;51319;52.162;5.302;2023-06-24T03:09:27;8.40;;;5.97;;
43998;SDS011;51319;52.162;5.302;2023-06-24T03:11:54;10.85;;;6.55;;
43998;SDS011;51319;52.162;5.302;2023-06-24T03:14:21;11.45;;;7.07;;
43998;SDS011;51319;52.162;5.302;2023-06-24T03:16:48;9.65;;;7.07;;
43998;SDS011;51319;52.162;5.302;2023-06-24T03:19:14;7.47;;;6.68;;
43998;SDS011;51319;52.162;5.302;2023-06-24T03:21:41;9.40;;;7.22;;
43998;SDS011;51319;52.162;5.302;2023-06-24T03:24:10;8.35;;;7.00;;
43998;SDS011;51319;52.162;5.302;2023-06-24T03:26:37;9.88;;;7.13;;
43998;SDS011;51319;52.162;5.302;2023-06-24T03:29:06;10.68;;;7.20;;
43998;SDS011;51319;52.162;5.302;2023-06-24T03:31:34;8.88;;;6.95;;
43998;SDS011;51319;52.162;5.302;2023-06-24T03:34:01;9.82;;;7.72;;
43998;SDS011;51319;52.162;5.302;2023-06-24T03:36:28;8.98;;;6.65;;
43998;SDS011;51319;52.162;5.302;2023-06-24T03:38:55;10.98;;;6.80;;
43998;SDS011;51319;52.162;5.302;2023-06-24T03:41:22;9.27;;;7.47;;
43998;SDS011;51319;52.162;5.302;2023-06-24T03:43:49;10.90;;;7.57;;
43998;SDS011;51319;52.162;5.302;2023-06-24T03:46:16;10.23;;;7.88;;
43998;SDS011;51319;52.162;5.302;2023-06-24T03:48:43;8.88;;;7.43;;
43998;SDS011;51319;52.162;5.302;2023-06-24T03:51:11;8.98;;;7.60;;
43998;SDS011;51319;52.162;5.302;2023-06-24T03:53:38;14.70;;;8.05;;
43998;SDS011;51319;52.162;5.302;2023-06-24T03:56:05;9.88;;;7.03;;
43998;SDS011;51319;52.162;5.302;2023-06-24T03:58:32;8.48;;;7.28;;
43998;SDS011;51319;52.162;5.302;2023-06-24T04:01:00;9.57;;;6.80;;
43998;SDS011;51319;52.162;5.302;2023-06-24T04:03:30;11.00;;;7.00;;
43998;SDS011;51319;52.162;5.302;2023-06-24T04:06:01;6.93;;;6.28;;
43998;SDS011;51319;52.162;5.302;2023-06-24T04:08:30;7.28;;;6.50;;
43998;SDS011;51319;52.162;5.302;2023-06-24T04:10:58;7.85;;;6.75;;
43998;SDS011;51319;52.162;5.302;2023-06-24T04:13:30;8.00;;;6.72;;
43998;SDS011;51319;52.162;5.302;2023-06-24T04:16:00;7.53;;;6.67;;
43998;SDS011;51319;52.162;5.302;2023-06-24T04:18:27;8.25;;;6.97;;
43998;SDS011;51319;52.162;5.302;2023-06-24T04:20:54;11.85;;;7.47;;
43998;SDS011;51319;52.162;5.302;2023-06-24T04:23:21;9.00;;;6.93;;
43998;SDS011;51319;52.162;5.302;2023-06-24T04:25:51;7.78;;;6.97;;
43998;SDS011;51319;52.162;5.302;2023-06-24T04:28:18;7.47;;;6.57;;
43998;SDS011;51319;52.162;5.302;2023-06-24T04:30:45;10.35;;;6.43;;
43998;SDS011;51319;52.162;5.302;2023-06-24T04:33:12;8.68;;;6.85;;
43998;SDS011;51319;52.162;5.302;2023-06-24T04:35:39;9.73;;;6.03;;
43998;SDS011;51319;52.162;5.302;2023-06-24T04:38:06;9.57;;;6.53;;
43998;SDS011;51319;52.162;5.302;2023-06-24T04:40:33;9.57;;;6.95;;
43998;SDS011;51319;52.162;5.302;2023-06-24T04:43:00;7.10;;;6.30;;
43998;SDS011;51319;52.162;5.302;2023-06-24T04:45:28;8.90;;;6.88;;
43998;SDS011;51319;52.162;5.302;2023-06-24T04:47:55;6.70;;;6.10;;
43998;SDS011;51319;52.162;5.302;2023-06-24T04:50:22;9.35;;;5.95;;
43998;SDS011;51319;52.162;5.302;2023-06-24T04:52:52;14.85;;;6.45;;
43998;SDS011;51319;52.162;5.302;2023-06-24T04:58:08;9.50;;;7.18;;
43998;SDS011;51319;52.162;5.302;2023-06-24T05:00:35;10.10;;;6.53;;
43998;SDS011;51319;52.162;5.302;2023-06-24T05:03:02;8.18;;;6.78;;
43998;SDS011;51319;52.162;5.302;2023-06-24T05:05:29;10.32;;;6.80;;
43998;SDS011;51319;52.162;5.302;2023-06-24T05:08:01;7.57;;;6.80;;
43998;SDS011;51319;52.162;5.302;2023-06-24T05:10:27;9.63;;;7.18;;
43998;SDS011;51319;52.162;5.302;2023-06-24T05:12:54;7.22;;;6.30;;
43998;SDS011;51319;52.162;5.302;2023-06-24T05:15:21;7.85;;;7.03;;
43998;SDS011;51319;52.162;5.302;2023-06-24T05:17:49;9.38;;;6.40;;
43998;SDS011;51319;52.162;5.302;2023-06-24T05:20:19;9.00;;;6.43;;
43998;SDS011;51319;52.162;5.302;2023-06-24T05:22:45;7.82;;;6.45;;
43998;SDS011;51319;52.162;5.302;2023-06-24T05:25:17;8.90;;;6.35;;
43998;SDS011;51319;52.162;5.302;2023-06-24T05:27:44;7.68;;;6.47;;
43998;SDS011;51319;52.162;5.302;2023-06-24T05:30:11;10.23;;;6.78;;
43998;SDS011;51319;52.162;5.302;2023-06-24T05:32:39;11.98;;;6.70;;
43998;SDS011;51319;52.162;5.302;2023-06-24T05:35:06;8.77;;;6.10;;
43998;SDS011;51319;52.162;5.302;2023-06-24T05:37:34;8.50;;;5.90;;
43998;SDS011;51319;52.162;5.302;2023-06-24T05:40:02;9.52;;;6.00;;
43998;SDS011;51319;52.162;5.302;2023-06-24T05:42:31;7.00;;;6.10;;
43998;SDS011;51319;52.162;5.302;2023-06-24T05:44:59;10.13;;;6.20;;
43998;SDS011;51319;52.162;5.302;2023-06-24T05:47:25;8.45;;;5.82;;
43998;SDS011;51319;52.162;5.302;2023-06-24T05:49:53;11.05;;;5.40;;
43998;SDS011;51319;52.162;5.302;2023-06-24T05:52:20;6.13;;;5.35;;
43998;SDS011;51319;52.162;5.302;2023-06-24T05:54:46;10.43;;;6.43;;
43998;SDS011;51319;52.162;5.302;2023-06-24T05:57:13;7.95;;;5.68;;
43998;SDS011;51319;52.162;5.302;2023-06-24T05:59:41;5.95;;;4.88;;
43998;SDS011;51319;52.162;5.302;2023-06-24T06:02:08;6.65;;;4.78;;
43998;SDS011;51319;52.162;5.302;2023-06-24T06:04:38;8.95;;;5.10;;
43998;SDS011;51319;52.162;5.302;2023-06-24T06:07:06;8.05;;;4.95;;
43998;SDS011;51319;52.162;5.302;2023-06-24T06:09:33;8.45;;;4.68;;
43998;SDS011;51319;52.162;5.302;2023-06-24T06:12:00;5.47;;;4.45;;
43998;SDS011;51319;52.162;5.302;2023-06-24T06:14:27;5.75;;;4.85;;
43998;SDS011;51319;52.162;5.302;2023-06-24T06:16:54;6.47;;;3.85;;
43998;SDS011;51319;52.162;5.302;2023-06-24T06:19:22;6.45;;;3.97;;
43998;SDS011;51319;52.162;5.302;2023-06-24T06:21:49;4.80;;;3.92;;
43998;SDS011;51319;52.162;5.302;2023-06-24T06:24:17;4.30;;;3.47;;
43998;SDS011;51319;52.162;5.302;2023-06-24T06:26:44;7.90;;;4.47;;
43998;SDS011;51319;52.162;5.302;2023-06-24T06:29:18;5.75;;;3.50;;
43998;SDS011;51319;52.162;5.302;2023-06-24T06:31:44;15.40;;;4.45;;
43998;SDS011;51319;52.162;5.302;2023-06-24T06:34:12;7.05;;;4.20;;
43998;SDS011;51319;52.162;5.302;2023-06-24T06:39:14;4.78;;;3.50;;
43998;SDS011;51319;52.162;5.302;2023-06-24T06:44:26;6.47;;;4.00;;
43998;SDS011;51319;52.162;5.302;2023-06-24T06:46:53;8.02;;;3.75;;
43998;SDS011;51319;52.162;5.302;2023-06-24T06:52:06;8.52;;;3.85;;
43998;SDS011;51319;52.162;5.302;2023-06-24T06:54:33;4.82;;;3.30;;
43998;SDS011;51319;52.162;5.302;2023-06-24T07:05:00;6.25;;;4.85;;
43998;SDS011;51319;52.162;5.302;2023-06-24T07:07:27;8.25;;;3.60;;
43998;SDS011;51319;52.162;5.302;2023-06-24T07:09:54;8.57;;;3.10;;
43998;SDS011;51319;52.162;5.302;2023-06-24T07:12:22;6.90;;;3.17;;
43998;SDS011;51319;52.162;5.302;2023-06-24T07:14:50;5.45;;;2.75;;
43998;SDS011;51319;52.162;5.302;2023-06-24T07:17:17;5.15;;;3.05;;
43998;SDS011;51319;52.162;5.302;2023-06-24T07:19:44;5.85;;;2.60;;
43998;SDS011;51319;52.162;5.302;2023-06-24T07:22:12;4.85;;;2.90;;
43998;SDS011;51319;52.162;5.302;2023-06-24T07:24:39;5.07;;;3.22;;
43998;SDS011;51319;52.162;5.302;2023-06-24T07:27:07;4.05;;;2.38;;
43998;SDS011;51319;52.162;5.302;2023-06-24T07:29:34;5.97;;;2.60;;
43998;SDS011;51319;52.162;5.302;2023-06-24T07:32:02;5.40;;;3.67;;
43998;SDS011;51319;52.162;5.302;2023-06-24T07:34:30;4.05;;;2.63;;
43998;SDS011;51319;52.162;5.302;2023-06-24T07:36:57;2.80;;;2.20;;
43998;SDS011;51319;52.162;5.302;2023-06-24T07:39:28;6.05;;;2.72;;
43998;SDS011;51319;52.162;5.302;2023-06-24T07:41:55;3.60;;;2.60;;
43998;SDS011;51319;52.162;5.302;2023-06-24T07:44:22;4.07;;;2.38;;
43998;SDS011;51319;52.162;5.302;2023-06-24T07:46:49;3.72;;;2.30;;
43998;SDS011;51319;52.162;5.302;2023-06-24T07:49:17;2.97;;;2.15;;
43998;SDS011;51319;52.162;5.302;2023-06-24T07:51:45;6.25;;;2.63;;
43998;SDS011;51319;52.162;5.302;2023-06-24T07:54:12;4.63;;;3.03;;
43998;SDS011;51319;52.162;5.302;2023-06-24T07:56:39;2.92;;;2.40;;
43998;SDS011;51319;52.162;5.302;2023-06-24T07:59:06;4.07;;;2.40;;
43998;SDS011;51319;52.162;5.302;2023-06-24T08:01:32;6.28;;;2.22;;
43998;SDS011;51319;52.162;5.302;2023-06-24T08:04:01;7.80;;;2.67;;
43998;SDS011;51319;52.162;5.302;2023-06-24T08:06:28;7.93;;;4.85;;
43998;SDS011;51319;52.162;5.302;2023-06-24T08:08:54;5.30;;;2.70;;
43998;SDS011;51319;52.162;5.302;2023-06-24T08:11:21;3.70;;;2.17;;
43998;SDS011;51319;52.162;5.302;2023-06-24T08:13:48;4.90;;;2.42;;
43998;SDS011;51319;52.162;5.302;2023-06-24T08:16:17;2.88;;;2.58;;
43998;SDS011;51319;52.162;5.302;2023-06-24T08:21:13;5.05;;;2.65;;
43998;SDS011;51319;52.162;5.302;2023-06-24T08:26:25;3.45;;;2.42;;
43998;SDS011;51319;52.162;5.302;2023-06-24T08:28:52;13.15;;;9.77;;
43998;SDS011;51319;52.162;5.302;2023-06-24T08:31:19;4.68;;;3.92;;
43998;SDS011;51319;52.162;5.302;2023-06-24T08:33:51;6.40;;;3.73;;
43998;SDS011;51319;52.162;5.302;2023-06-24T08:36:25;6.53;;;3.00;;
43998;SDS011;51319;52.162;5.302;2023-06-24T08:38:53;8.20;;;3.30;;
43998;SDS011;51319;52.162;5.302;2023-06-24T08:41:20;5.43;;;2.78;;
43998;SDS011;51319;52.162;5.302;2023-06-24T08:46:29;4.55;;;3.40;;
43998;SDS011;51319;52.162;5.302;2023-06-24T08:49:02;4.05;;;2.90;;
43998;SDS011;51319;52.162;5.302;2023-06-24T08:54:19;2.90;;;2.00;;
43998;SDS011;51319;52.162;5.302;2023-06-24T08:56:47;7.60;;;2.83;;
43998;SDS011;51319;52.162;5.302;2023-06-24T09:04:45;7.80;;;3.03;;
43998;SDS011;51319;52.162;5.302;2023-06-24T09:12:33;3.60;;;2.80;;
43998;SDS011;51319;52.162;5.302;2023-06-24T09:15:01;5.35;;;3.55;;
43998;SDS011;51319;52.162;5.302;2023-06-24T09:17:31;4.38;;;3.03;;
43998;SDS011;51319;52.162;5.302;2023-06-24T09:20:04;5.20;;;2.80;;
43998;SDS011;51319;52.162;5.302;2023-06-24T09:22:32;7.97;;;2.92;;
43998;SDS011;51319;52.162;5.302;2023-06-24T09:27:31;5.78;;;3.15;;
43998;SDS011;51319;52.162;5.302;2023-06-24T09:32:45;8.00;;;3.40;;
43998;SDS011;51319;52.162;5.302;2023-06-24T09:35:14;5.95;;;3.13;;
43998;SDS011;51319;52.162;5.302;2023-06-24T09:37:48;4.78;;;2.83;;
43998;SDS011;51319;52.162;5.302;2023-06-24T09:40:19;4.70;;;3.00;;
43998;SDS011;51319;52.162;5.302;2023-06-24T09:42:54;3.58;;;2.75;;
43998;SDS011;51319;52.162;5.302;2023-06-24T09:45:26;4.40;;;3.03;;
43998;SDS011;51319;52.162;5.302;2023-06-24T09:47:57;4.65;;;3.50;;
43998;SDS011;51319;52.162;5.302;2023-06-24T09:50:24;3.25;;;2.58;;
43998;SDS011;51319;52.162;5.302;2023-06-24T09:55:44;7.50;;;3.53;;
43998;SDS011;51319;52.162;5.302;2023-06-24T09:58:13;2.80;;;2.53;;
43998;SDS011;51319;52.162;5.302;2023-06-24T10:00:41;4.47;;;2.58;;
43998;SDS011;51319;52.162;5.302;2023-06-24T10:03:10;4.60;;;2.60;;
43998;SDS011;51319;52.162;5.302;2023-06-24T10:05:38;4.50;;;3.30;;
43998;SDS011;51319;52.162;5.302;2023-06-24T10:08:06;3.60;;;2.85;;
43998;SDS011;51319;52.162;5.302;2023-06-24T10:10:35;5.35;;;3.03;;
43998;SDS011;51319;52.162;5.302;2023-06-24T10:13:02;3.42;;;2.80;;
43998;SDS011;51319;52.162;5.302;2023-06-24T10:15:35;5.82;;;2.83;;
43998;SDS011;51319;52.162;5.302;2023-06-24T10:18:02;7.53;;;3.75;;
43998;SDS011;51319;52.162;5.302;2023-06-24T10:26:27;4.55;;;3.13;;
43998;SDS011;51319;52.162;5.302;2023-06-24T10:34:28;5.35;;;2.88;;
43998;SDS011;51319;52.162;5.302;2023-06-24T10:39:48;5.60;;;2.70;;
43998;SDS011;51319;52.162;5.302;2023-06-24T10:45:24;3.45;;;2.67;;
43998;SDS011;51319;52.162;5.302;2023-06-24T10:47:51;5.78;;;3.42;;
43998;SDS011;51319;52.162;5.302;2023-06-24T10:52:57;12.73;;;9.73;;
43998;SDS011;51319;52.162;5.302;2023-06-24T10:58:06;7.18;;;2.63;;
43998;SDS011;51319;52.162;5.302;2023-06-24T11:11:19;7.97;;;3.15;;
43998;SDS011;51319;52.162;5.302;2023-06-24T11:13:48;8.00;;;4.20;;
43998;SDS011;51319;52.162;5.302;2023-06-24T11:16:19;5.43;;;2.90;;
43998;SDS011;51319;52.162;5.302;2023-06-24T11:18:47;5.68;;;3.05;;
43998;SDS011;51319;52.162;5.302;2023-06-24T11:26:35;6.28;;;3.17;;
43998;SDS011;51319;52.162;5.302;2023-06-24T11:29:09;5.82;;;3.95;;
43998;SDS011;51319;52.162;5.302;2023-06-24T11:31:39;4.85;;;2.97;;
43998;SDS011;51319;52.162;5.302;2023-06-24T11:55:58;11.90;;;4.50;;
43998;SDS011;51319;52.162;5.302;2023-06-24T11:58:25;6.07;;;3.65;;
43998;SDS011;51319;52.162;5.302;2023-06-24T12:00:52;5.18;;;4.13;;
43998;SDS011;51319;52.162;5.302;2023-06-24T12:03:22;7.00;;;3.08;;
43998;SDS011;51319;52.162;5.302;2023-06-24T12:19:27;4.20;;;3.28;;
43998;SDS011;51319;52.162;5.302;2023-06-24T12:24:33;5.28;;;3.65;;
43998;SDS011;51319;52.162;5.302;2023-06-24T12:29:37;5.88;;;3.55;;
43998;SDS011;51319;52.162;5.302;2023-06-24T12:32:04;5.35;;;3.35;;
43998;SDS011;51319;52.162;5.302;2023-06-24T12:34:33;5.82;;;3.25;;
43998;SDS011;51319;52.162;5.302;2023-06-24T12:42:31;6.28;;;4.13;;
43998;SDS011;51319;52.162;5.302;2023-06-24T12:45:00;3.70;;;3.13;;
43998;SDS011;51319;52.162;5.302;2023-06-24T13:04:09;3.65;;;2.72;;
43998;SDS011;51319;52.162;5.302;2023-06-24T13:06:37;5.68;;;3.30;;
43998;SDS011;51319;52.162;5.302;2023-06-24T13:17:32;4.65;;;3.42;;
43998;SDS011;51319;52.162;5.302;2023-06-24T13:19:59;11.43;;;6.28;;
43998;SDS011;51319;52.162;5.302;2023-06-24T13:22:27;3.72;;;3.35;;
43998;SDS011;51319;52.162;5.302;2023-06-24T13:27:30;6.53;;;2.53;;
43998;SDS011;51319;52.162;5.302;2023-06-24T13:30:08;5.88;;;3.00;;
43998;SDS011;51319;52.162;5.302;2023-06-24T13:32:36;3.92;;;2.78;;
43998;SDS011;51319;52.162;5.302;2023-06-24T13:37:39;3.00;;;2.70;;
43998;SDS011;51319;52.162;5.302;2023-06-24T13:40:07;4.18;;;2.47;;
43998;SDS011;51319;52.162;5.302;2023-06-24T13:42:35;5.38;;;2.75;;
43998;SDS011;51319;52.162;5.302;2023-06-24T13:47:38;4.72;;;3.35;;
43998;SDS011;51319;52.162;5.302;2023-06-24T13:55:27;5.90;;;3.47;;
43998;SDS011;51319;52.162;5.302;2023-06-24T13:57:54;3.28;;;2.95;;
43998;SDS011;51319;52.162;5.302;2023-06-24T14:00:22;4.18;;;3.05;;
43998;SDS011;51319;52.162;5.302;2023-06-24T14:02:50;7.70;;;3.10;;
43998;SDS011;51319;52.162;5.302;2023-06-24T14:05:17;4.68;;;3.03;;
43998;SDS011;51319;52.162;5.302;2023-06-24T14:07:44;5.50;;;3.17;;
43998;SDS011;51319;52.162;5.302;2023-06-24T14:10:11;3.35;;;2.78;;
43998;SDS011;51319;52.162;5.302;2023-06-24T14:12:38;3.25;;;3.00;;
43998;SDS011;51319;52.162;5.302;2023-06-24T14:15:09;5.05;;;3.20;;
43998;SDS011;51319;52.162;5.302;2023-06-24T14:17:39;4.57;;;3.00;;
43998;SDS011;51319;52.162;5.302;2023-06-24T14:20:06;6.28;;;3.00;;
43998;SDS011;51319;52.162;5.302;2023-06-24T14:22:34;7.15;;;3.33;;
43998;SDS011;51319;52.162;5.302;2023-06-24T14:25:10;5.78;;;3.42;;
43998;SDS011;51319;52.162;5.302;2023-06-24T14:27:38;9.98;;;3.25;;
43998;SDS011;51319;52.162;5.302;2023-06-24T14:30:05;8.88;;;3.78;;
43998;SDS011;51319;52.162;5.302;2023-06-24T14:32:33;9.18;;;4.30;;
43998;SDS011;51319;52.162;5.302;2023-06-24T14:35:00;6.60;;;3.60;;
43998;SDS011;51319;52.162;5.302;2023-06-24T14:37:27;8.05;;;4.65;;
43998;SDS011;51319;52.162;5.302;2023-06-24T14:39:54;6.72;;;3.75;;
43998;SDS011;51319;52.162;5.302;2023-06-24T14:42:21;7.45;;;3.72;;
43998;SDS011;51319;52.162;5.302;2023-06-24T14:44:48;5.28;;;3.70;;
43998;SDS011;51319;52.162;5.302;2023-06-24T14:47:15;7.45;;;4.57;;
43998;SDS011;51319;52.162;5.302;2023-06-24T14:49:43;10.57;;;5.28;;
43998;SDS011;51319;52.162;5.302;2023-06-24T14:52:10;9.07;;;4.13;;
43998;SDS011;51319;52.162;5.302;2023-06-24T14:54:37;7.22;;;4.45;;
43998;SDS011;51319;52.162;5.302;2023-06-24T14:57:04;8.95;;;4.53;;
43998;SDS011;51319;52.162;5.302;2023-06-24T14:59:31;10.52;;;4.10;;
43998;SDS011;51319;52.162;5.302;2023-06-24T15:01:59;12.68;;;5.28;;
43998;SDS011;51319;52.162;5.302;2023-06-24T15:04:26;11.43;;;6.13;;
43998;SDS011;51319;52.162;5.302;2023-06-24T15:06:53;7.40;;;3.97;;
43998;SDS011;51319;52.162;5.302;2023-06-24T15:09:21;7.82;;;4.30;;
43998;SDS011;51319;52.162;5.302;2023-06-24T15:11:49;16.25;;;4.78;;
43998;SDS011;51319;52.162;5.302;2023-06-24T15:17:04;6.10;;;3.47;;
43998;SDS011;51319;52.162;5.302;2023-06-24T15:19:31;7.45;;;5.35;;
43998;SDS011;51319;52.162;5.302;2023-06-24T15:21:58;14.57;;;7.28;;
43998;SDS011;51319;52.162;5.302;2023-06-24T15:24:33;6.10;;;3.45;;
43998;SDS011;51319;52.162;5.302;2023-06-24T15:27:01;9.55;;;3.50;;
43998;SDS011;51319;52.162;5.302;2023-06-24T15:29:28;5.25;;;3.88;;
43998;SDS011;51319;52.162;5.302;2023-06-24T15:31:58;7.50;;;3.88;;
43998;SDS011;51319;52.162;5.302;2023-06-24T15:34:25;5.70;;;3.85;;
43998;SDS011;51319;52.162;5.302;2023-06-24T15:36:52;7.45;;;3.92;;
43998;SDS011;51319;52.162;5.302;2023-06-24T15:39:19;4.30;;;3.25;;
43998;SDS011;51319;52.162;5.302;2023-06-24T15:41:58;5.82;;;3.70;;
43998;SDS011;51319;52.162;5.302;2023-06-24T15:44:34;4.38;;;3.05;;
43998;SDS011;51319;52.162;5.302;2023-06-24T15:47:01;4.57;;;4.00;;
43998;SDS011;51319;52.162;5.302;2023-06-24T15:49:30;5.85;;;3.65;;
43998;SDS011;51319;52.162;5.302;2023-06-24T15:52:00;7.90;;;3.45;;
43998;SDS011;51319;52.162;5.302;2023-06-24T15:54:27;7.85;;;3.50;;
43998;SDS011;51319;52.162;5.302;2023-06-24T15:56:54;6.55;;;4.22;;
43998;SDS011;51319;52.162;5.302;2023-06-24T15:59:21;7.57;;;4.80;;
43998;SDS011;51319;52.162;5.302;2023-06-24T16:01:51;6.88;;;4.97;;
43998;SDS011;51319;52.162;5.302;2023-06-24T16:04:18;9.52;;;4.78;;
43998;SDS011;51319;52.162;5.302;2023-06-24T16:06:45;7.88;;;5.80;;
43998;SDS011;51319;52.162;5.302;2023-06-24T16:09:13;10.25;;;5.25;;
43998;SDS011;51319;52.162;5.302;2023-06-24T16:11:40;8.48;;;5.28;;
43998;SDS011;51319;52.162;5.302;2023-06-24T16:14:07;14.45;;;5.82;;
43998;SDS011;51319;52.162;5.302;2023-06-24T16:16:34;10.50;;;6.22;;
43998;SDS011;51319;52.162;5.302;2023-06-24T16:19:01;9.88;;;6.18;;
43998;SDS011;51319;52.162;5.302;2023-06-24T16:21:28;8.48;;;5.75;;
43998;SDS011;51319;52.162;5.302;2023-06-24T16:26:41;7.60;;;5.00;;
43998;SDS011;51319;52.162;5.302;2023-06-24T16:29:18;8.35;;;5.10;;
43998;SDS011;51319;52.162;5.302;2023-06-24T16:31:45;14.73;;;5.50;;
43998;SDS011;51319;52.162;5.302;2023-06-24T16:34:12;11.80;;;5.97;;
43998;SDS011;51319;52.162;5.302;2023-06-24T16:36:49;8.63;;;5.82;;
43998;SDS011;51319;52.162;5.302;2023-06-24T16:39:17;7.18;;;5.57;;
43998;SDS011;51319;52.162;5.302;2023-06-24T16:41:45;11.02;;;5.30;;
43998;SDS011;51319;52.162;5.302;2023-06-24T16:44:12;11.65;;;5.85;;
43998;SDS011;51319;52.162;5.302;2023-06-24T16:46:39;9.85;;;4.93;;
43998;SDS011;51319;52.162;5.302;2023-06-24T16:49:06;9.85;;;5.10;;
43998;SDS011;51319;52.162;5.302;2023-06-24T16:51:33;9.93;;;5.40;;
43998;SDS011;51319;52.162;5.302;2023-06-24T16:54:01;8.82;;;5.22;;
43998;SDS011;51319;52.162;5.302;2023-06-24T16:56:28;13.70;;;5.10;;
43998;SDS011;51319;52.162;5.302;2023-06-24T17:01:41;10.40;;;5.30;;
43998;SDS011;51319;52.162;5.302;2023-06-24T17:04:10;15.55;;;10.93;;
43998;SDS011;51319;52.162;5.302;2023-06-24T17:06:38;12.23;;;6.38;;
43998;SDS011;51319;52.162;5.302;2023-06-24T17:14:37;11.25;;;6.38;;
43998;SDS011;51319;52.162;5.302;2023-06-24T17:17:21;12.07;;;4.80;;
43998;SDS011;51319;52.162;5.302;2023-06-24T17:20:12;7.15;;;5.10;;
43998;SDS011;51319;52.162;5.302;2023-06-24T17:22:43;9.45;;;5.50;;
43998;SDS011;51319;52.162;5.302;2023-06-24T17:25:15;7.65;;;4.97;;
43998;SDS011;51319;52.162;5.302;2023-06-24T17:27:42;10.68;;;5.38;;
43998;SDS011;51319;52.162;5.302;2023-06-24T17:30:09;21.17;;;12.55;;
43998;SDS011;51319;52.162;5.302;2023-06-24T17:35:23;9.13;;;4.70;;
43998;SDS011;51319;52.162;5.302;2023-06-24T17:37:53;5.60;;;4.50;;
43998;SDS011;51319;52.162;5.302;2023-06-24T17:40:20;6.90;;;4.72;;
43998;SDS011;51319;52.162;5.302;2023-06-24T17:42:50;9.27;;;4.50;;
43998;SDS011;51319;52.162;5.302;2023-06-24T17:45:19;6.10;;;4.10;;
43998;SDS011;51319;52.162;5.302;2023-06-24T17:47:46;6.57;;;4.72;;
43998;SDS011;51319;52.162;5.302;2023-06-24T17:50:15;8.48;;;4.82;;
43998;SDS011;51319;52.162;5.302;2023-06-24T17:52:42;7.85;;;5.00;;
43998;SDS011;51319;52.162;5.302;2023-06-24T17:55:10;6.60;;;4.82;;
43998;SDS011;51319;52.162;5.302;2023-06-24T17:57:37;7.90;;;4.63;;
43998;SDS011;51319;52.162;5.302;2023-06-24T18:00:05;5.35;;;4.78;;
43998;SDS011;51319;52.162;5.302;2023-06-24T18:05:19;7.72;;;4.18;;
43998;SDS011;51319;52.162;5.302;2023-06-24T18:07:46;12.25;;;6.47;;
43998;SDS011;51319;52.162;5.302;2023-06-24T18:10:13;7.20;;;4.95;;
43998;SDS011;51319;52.162;5.302;2023-06-24T18:12:44;8.75;;;4.88;;
43998;SDS011;51319;52.162;5.302;2023-06-24T18:31:43;6.03;;;4.10;;